La Paz, Argentina
Current Conditions -  °F | °C
As of 7:00 PM on Sunday 25 Jan 2015 (Local Time) from SAME Reporting Station
Scattered Clouds Scattered Clouds  
Wind Chill: 90°   Ceiling: Unl
Heat Index: 90°   Visibility: 6mi
Dew Point: 61°   Wind: 3mph
Humidity: 38%   Direction: 230°SW
Pressure: 29.71"   Gusts: NA
Location:  33.47°S, 67.55°W
Report Text: SAME 252200Z 23003KT 9999 FEW045CB SCT050TCU32/16 Q1006
Loading
Personal Weather Stations






























Interactive Weather Map New forecast layout! Learn more

10-Day Weather Forecast

Advertisements
Track Severe Weather on mobile